createdAt,value
2023-07-30T00:02:06.128Z,27.98
2023-07-30T00:07:08.208Z,27.99
2023-07-30T00:12:11.543Z,27.92
2023-07-30T00:17:13.742Z,27.90
2023-07-30T00:22:15.925Z,27.92
2023-07-30T00:27:17.963Z,27.93
2023-07-30T00:32:20.202Z,27.92
2023-07-30T00:37:23.073Z,27.91
2023-07-30T00:42:25.831Z,27.92
2023-07-30T00:47:28.396Z,27.90
2023-07-30T00:52:31.575Z,27.87
2023-07-30T00:57:35.494Z,27.85
2023-07-30T01:02:38.235Z,27.85
2023-07-30T01:07:40.390Z,27.80
2023-07-30T01:12:43.976Z,27.83
2023-07-30T01:17:46.655Z,27.85
2023-07-30T01:22:48.903Z,27.85
2023-07-30T01:27:55.383Z,27.83
2023-07-30T01:32:58.887Z,27.82
2023-07-30T01:38:06.677Z,27.81
2023-07-30T01:43:08.862Z,27.80
2023-07-30T01:48:11.057Z,27.79
2023-07-30T01:53:13.376Z,27.78
2023-07-30T01:58:15.633Z,27.78
2023-07-30T02:03:17.836Z,27.77
2023-07-30T02:08:20.049Z,27.78
2023-07-30T02:13:22.198Z,27.77
2023-07-30T02:18:24.431Z,27.78
2023-07-30T02:23:26.916Z,27.77
2023-07-30T02:28:29.060Z,27.76
2023-07-30T02:33:31.181Z,27.79
2023-07-30T02:38:33.330Z,27.78
2023-07-30T02:43:35.432Z,27.76
2023-07-30T02:48:37.618Z,27.77
2023-07-30T02:53:39.836Z,27.73
2023-07-30T02:58:42.050Z,27.74
2023-07-30T03:03:44.273Z,27.73
2023-07-30T03:08:46.442Z,27.74
2023-07-30T03:13:48.659Z,27.74
2023-07-30T03:18:50.822Z,27.74
2023-07-30T03:23:52.977Z,27.78
2023-07-30T03:28:54.982Z,27.81
2023-07-30T03:33:57.208Z,27.83
2023-07-30T03:38:59.446Z,27.85
2023-07-30T03:44:02.000Z,27.85
2023-07-30T03:49:04.160Z,27.84
2023-07-30T03:54:06.719Z,27.83
2023-07-30T03:59:08.817Z,27.82
2023-07-30T04:04:11.013Z,27.80
2023-07-30T04:09:13.236Z,27.78
2023-07-30T04:14:15.456Z,27.78
2023-07-30T04:19:20.492Z,27.77
2023-07-30T04:24:23.021Z,27.75
2023-07-30T04:29:25.175Z,27.73
2023-07-30T04:34:27.931Z,27.71
2023-07-30T04:39:33.190Z,27.73
2023-07-30T04:44:35.631Z,27.71
2023-07-30T04:49:46.808Z,27.71
2023-07-30T04:54:48.965Z,27.72
2023-07-30T04:59:51.120Z,27.66
2023-07-30T05:04:53.413Z,27.66
2023-07-30T05:09:55.624Z,27.65
2023-07-30T05:14:57.686Z,27.63
2023-07-30T05:19:59.787Z,27.65
2023-07-30T05:25:01.972Z,27.67
2023-07-30T05:30:04.412Z,27.62
2023-07-30T05:35:07.194Z,27.62
2023-07-30T05:40:09.688Z,27.61
2023-07-30T05:45:12.508Z,27.59
2023-07-30T05:50:14.640Z,27.59
2023-07-30T05:55:17.153Z,27.59
2023-07-30T06:00:19.442Z,27.53
2023-07-30T06:05:21.680Z,27.60
2023-07-30T06:10:23.892Z,27.62
2023-07-30T06:15:26.144Z,27.60
2023-07-30T06:20:28.494Z,27.60
2023-07-30T06:25:31.426Z,27.62
2023-07-30T06:30:34.282Z,27.64
2023-07-30T06:35:36.441Z,27.63
2023-07-30T06:40:38.651Z,27.64
2023-07-30T06:45:40.762Z,27.70
2023-07-30T06:50:43.303Z,27.72
2023-07-30T06:55:45.553Z,27.75
2023-07-30T07:00:47.816Z,27.77
2023-07-30T07:05:57.093Z,27.79
2023-07-30T07:10:59.242Z,27.80
2023-07-30T07:16:01.405Z,27.80
2023-07-30T07:21:03.971Z,27.79
2023-07-30T07:26:06.145Z,27.79
2023-07-30T07:31:08.358Z,27.77
2023-07-30T07:36:10.688Z,27.76
2023-07-30T07:41:20.080Z,27.76
2023-07-30T07:46:22.724Z,27.77
2023-07-30T07:51:25.054Z,27.82
2023-07-30T07:56:27.276Z,27.81
2023-07-30T08:01:29.512Z,27.81
2023-07-30T08:06:33.425Z,27.81
2023-07-30T08:11:35.964Z,27.85
2023-07-30T08:16:38.292Z,27.86
2023-07-30T08:21:40.816Z,27.82
2023-07-30T08:26:43.224Z,27.83
2023-07-30T08:31:45.591Z,27.85
2023-07-30T08:36:47.770Z,27.86
2023-07-30T08:41:50.094Z,27.87
2023-07-30T08:46:55.149Z,27.90
2023-07-30T08:51:58.568Z,27.80
2023-07-30T08:57:01.552Z,27.81
2023-07-30T09:02:05.572Z,27.77
2023-07-30T09:07:11.206Z,27.81
2023-07-30T09:12:16.957Z,27.83
2023-07-30T09:17:19.979Z,27.84
2023-07-30T09:22:28.853Z,27.85
2023-07-30T09:27:32.442Z,27.87
2023-07-30T09:32:36.306Z,27.90
2023-07-30T09:37:41.193Z,27.90
2023-07-30T09:42:44.983Z,27.88
2023-07-30T09:47:51.411Z,27.94
2023-07-30T09:52:55.722Z,27.93
2023-07-30T09:57:58.417Z,27.98
2023-07-30T10:03:03.883Z,28.00
2023-07-30T10:08:40.531Z,28.03
2023-07-30T10:13:43.356Z,28.01
2023-07-30T10:18:45.877Z,28.01
2023-07-30T10:24:01.685Z,28.05
2023-07-30T10:29:14.769Z,28.05
2023-07-30T10:34:17.076Z,28.07
2023-07-30T10:39:27.391Z,28.08
2023-07-30T10:44:33.526Z,28.09
2023-07-30T10:49:42.697Z,28.08
2023-07-30T10:54:44.904Z,28.12
2023-07-30T10:59:47.919Z,28.18
2023-07-30T11:04:50.042Z,28.20
2023-07-30T11:10:04.902Z,28.20
2023-07-30T11:15:07.753Z,28.25
2023-07-30T11:20:22.494Z,28.28
2023-07-30T11:25:24.837Z,28.34
2023-07-30T11:30:29.901Z,28.35
2023-07-30T11:35:32.567Z,28.39
2023-07-30T11:40:34.948Z,28.37
2023-07-30T11:45:37.261Z,28.34
2023-07-30T11:50:50.217Z,28.33
2023-07-30T11:55:52.409Z,28.30
2023-07-30T12:00:55.236Z,28.32
2023-07-30T12:05:57.439Z,28.31
2023-07-30T12:11:07.465Z,28.30
2023-07-30T12:16:09.907Z,28.28
2023-07-30T12:21:13.547Z,28.29
2023-07-30T12:26:15.746Z,28.26
2023-07-30T12:31:17.901Z,28.26
2023-07-30T12:36:20.077Z,28.25
2023-07-30T12:41:27.325Z,28.26
2023-07-30T12:46:31.391Z,28.25
2023-07-30T12:51:34.320Z,28.25
2023-07-30T12:56:37.822Z,28.24
2023-07-30T13:01:40.802Z,28.25
2023-07-30T13:06:43.978Z,28.25
2023-07-30T13:11:46.164Z,28.24
2023-07-30T13:16:48.438Z,28.23
2023-07-30T13:21:50.666Z,28.23
2023-07-30T13:26:52.866Z,28.23
2023-07-30T13:31:55.088Z,28.18
2023-07-30T13:36:57.270Z,28.18
2023-07-30T13:41:59.425Z,28.20
2023-07-30T13:47:01.612Z,28.21
2023-07-30T13:52:04.046Z,28.21
2023-07-30T13:57:06.723Z,28.17
2023-07-30T14:02:09.010Z,28.19
2023-07-30T14:07:11.229Z,28.17
2023-07-30T14:12:13.475Z,28.19
2023-07-30T14:17:17.029Z,28.17
2023-07-30T14:22:19.262Z,28.17
2023-07-30T14:27:21.466Z,28.17
2023-07-30T14:32:24.604Z,28.16
2023-07-30T14:37:26.566Z,28.14
2023-07-30T14:42:28.785Z,28.13
2023-07-30T14:47:30.921Z,28.15
2023-07-30T14:52:33.195Z,28.13
2023-07-30T14:57:35.594Z,28.15
2023-07-30T15:02:37.867Z,28.15
2023-07-30T15:07:40.023Z,28.17
2023-07-30T15:12:42.188Z,28.19
2023-07-30T15:17:44.365Z,28.20
2023-07-30T15:22:46.642Z,28.22
2023-07-30T15:27:48.929Z,28.22
2023-07-30T15:32:51.278Z,28.21
2023-07-30T15:37:53.472Z,28.24
2023-07-30T15:42:55.667Z,28.25
2023-07-30T15:47:59.322Z,28.25
2023-07-30T15:53:01.688Z,28.23
2023-07-30T15:58:03.887Z,28.27
2023-07-30T16:03:08.247Z,28.28
2023-07-30T16:08:10.564Z,28.30
2023-07-30T16:13:12.835Z,28.31
2023-07-30T16:18:15.005Z,28.30
2023-07-30T16:23:17.165Z,28.31
2023-07-30T16:28:19.369Z,28.31
2023-07-30T16:33:22.087Z,28.34
2023-07-30T16:38:24.785Z,28.37
2023-07-30T16:43:27.143Z,28.40
2023-07-30T16:48:29.573Z,28.44
2023-07-30T16:53:31.731Z,28.46
2023-07-30T16:58:33.982Z,28.53
2023-07-30T17:03:38.905Z,28.58
2023-07-30T17:08:41.169Z,28.62
2023-07-30T17:13:45.475Z,28.65
2023-07-30T17:18:47.816Z,28.66
2023-07-30T17:23:50.351Z,28.68
2023-07-30T17:28:52.527Z,28.69
2023-07-30T17:33:57.647Z,28.70
2023-07-30T17:39:00.211Z,28.72
2023-07-30T17:44:03.642Z,28.73
2023-07-30T17:49:05.953Z,28.72
2023-07-30T17:54:08.182Z,28.75
2023-07-30T17:59:10.792Z,28.76
2023-07-30T18:04:12.953Z,28.75
2023-07-30T18:09:15.581Z,28.72
2023-07-30T18:14:17.808Z,28.73
2023-07-30T18:19:20.351Z,28.71
2023-07-30T18:24:23.057Z,28.71
2023-07-30T18:29:25.199Z,28.66
2023-07-30T18:34:27.372Z,28.66
2023-07-30T18:39:29.561Z,28.63
2023-07-30T18:44:31.752Z,28.60
2023-07-30T18:49:33.929Z,28.56
2023-07-30T18:54:36.025Z,28.51
2023-07-30T18:59:39.366Z,28.49
2023-07-30T19:04:41.581Z,28.44
2023-07-30T19:09:43.857Z,28.45
2023-07-30T19:14:46.004Z,28.42
2023-07-30T19:19:48.820Z,28.41
2023-07-30T19:24:51.084Z,28.39
2023-07-30T19:29:53.308Z,28.35
2023-07-30T19:34:55.584Z,28.28
2023-07-30T19:39:57.869Z,28.32
2023-07-30T19:45:00.063Z,28.36
2023-07-30T19:50:04.097Z,28.38
2023-07-30T19:55:10.684Z,28.28
2023-07-30T20:00:13.649Z,28.34
2023-07-30T20:05:16.620Z,28.31
2023-07-30T20:10:18.903Z,28.31
2023-07-30T20:15:20.983Z,28.12
2023-07-30T20:20:23.507Z,28.13
2023-07-30T20:25:25.864Z,28.09
2023-07-30T20:30:28.021Z,28.11
2023-07-30T20:35:30.396Z,28.08
2023-07-30T20:40:32.597Z,28.10
2023-07-30T20:45:34.789Z,28.09
2023-07-30T20:50:37.376Z,28.06
2023-07-30T20:55:39.582Z,28.07
2023-07-30T21:00:41.852Z,28.09
2023-07-30T21:05:44.125Z,28.10
2023-07-30T21:10:46.321Z,28.11
2023-07-30T21:15:51.436Z,28.10
2023-07-30T21:20:53.739Z,28.10
2023-07-30T21:25:56.023Z,28.06
2023-07-30T21:31:06.000Z,28.08
2023-07-30T21:36:08.304Z,28.06
2023-07-30T21:41:10.499Z,28.03
2023-07-30T21:46:12.949Z,28.00
2023-07-30T21:51:15.163Z,28.00
2023-07-30T21:56:17.326Z,28.02
2023-07-30T22:01:19.512Z,28.00
2023-07-30T22:06:21.707Z,27.99
2023-07-30T22:11:25.623Z,28.01
2023-07-30T22:16:29.749Z,28.00
2023-07-30T22:21:31.922Z,28.02
2023-07-30T22:26:34.216Z,28.03
2023-07-30T22:31:39.775Z,28.02
2023-07-30T22:36:42.405Z,28.00
2023-07-30T22:41:44.985Z,28.02
2023-07-30T22:46:47.376Z,28.00
2023-07-30T22:51:49.589Z,27.98
2023-07-30T22:56:52.061Z,27.98
2023-07-30T23:01:57.652Z,27.98
2023-07-30T23:07:00.080Z,27.99
2023-07-30T23:12:02.385Z,27.98
2023-07-30T23:17:04.763Z,27.94
2023-07-30T23:22:10.464Z,27.91
2023-07-30T23:27:15.178Z,27.88
2023-07-30T23:32:17.915Z,27.87
2023-07-30T23:37:20.100Z,27.86
2023-07-30T23:42:22.256Z,27.86
2023-07-30T23:47:26.127Z,27.86
2023-07-30T23:52:34.799Z,27.85
2023-07-30T23:57:37.772Z,27.85
